Time;durP1;ratioP1;P1;durP2;ratioP2;P2;SDS_P1;SDS_P2;PMS_P1;PMS_P2;Temp;Humidity;BMP_temperature;BMP_pressure;BME280_temperature;BME280_humidity;BME280_pressure;Samples;Min_cycle;Max_cycle;Signal;HPM_P1;HPM_P2
2022/11/21 00:00:50;;;;;;;28.88;17.15;;;-0.20;99.90;;;;;;5065434;28;20051;-56
2022/11/21 00:03:16;;;;;;;32.65;17.85;;;-0.20;99.90;;;;;;5065340;28;20685;-56
2022/11/21 00:05:44;;;;;;;33.92;17.60;;;-0.20;99.90;;;;;;5080252;28;20060;-56
2022/11/21 00:08:13;;;;;;;28.70;18.67;;;-0.20;99.90;;;;;;5065486;28;20752;-56
2022/11/21 00:10:39;;;;;;;29.33;17.63;;;-0.20;99.90;;;;;;5065454;28;20072;-56
2022/11/21 00:13:07;;;;;;;31.15;18.17;;;-0.20;99.90;;;;;;5065776;28;20048;-56
2022/11/21 00:15:34;;;;;;;26.98;17.40;;;-0.30;99.90;;;;;;5065462;28;20059;-56
2022/11/21 00:18:02;;;;;;;31.65;18.45;;;-0.30;99.90;;;;;;5065362;28;20119;-56
2022/11/21 00:20:27;;;;;;;28.50;17.15;;;-0.20;99.90;;;;;;5065585;28;20036;-56
2022/11/21 00:22:54;;;;;;;36.80;19.80;;;-0.30;99.90;;;;;;5065460;28;20032;-56
2022/11/21 00:25:19;;;;;;;36.22;18.40;;;-0.30;99.90;;;;;;5066007;28;20040;-56
2022/11/21 00:27:45;;;;;;;32.47;19.25;;;-0.30;99.90;;;;;;5065915;28;20040;-56
2022/11/21 00:30:11;;;;;;;27.70;17.77;;;-0.30;99.90;;;;;;5081120;28;20044;-56
2022/11/21 00:32:37;;;;;;;32.95;19.50;;;0.60;99.90;;;;;;5065543;28;20044;-56
2022/11/21 00:35:04;;;;;;;28.58;16.83;;;-0.40;99.90;;;;;;5065320;28;20052;-56
2022/11/21 00:37:31;;;;;;;32.85;18.33;;;-0.30;99.90;;;;;;5065390;28;20039;-56
2022/11/21 00:39:57;;;;;;;33.05;19.13;;;-0.30;99.90;;;;;;5047573;28;20083;-56
2022/11/21 00:42:22;;;;;;;29.73;18.55;;;-0.40;99.90;;;;;;5065853;28;20147;-56
2022/11/21 00:44:48;;;;;;;35.08;19.88;;;-0.40;99.90;;;;;;5065163;28;20045;-56
2022/11/21 00:47:14;;;;;;;31.90;18.65;;;-0.40;99.90;;;;;;5065258;28;20048;-56
2022/11/21 00:49:39;;;;;;;30.60;17.25;;;-0.40;99.90;;;;;;5065180;28;20033;-56
2022/11/21 00:52:05;;;;;;;35.83;19.08;;;-0.40;99.90;;;;;;5066729;28;20135;-56
2022/11/21 00:54:31;;;;;;;31.83;18.80;;;-0.40;99.90;;;;;;5069003;28;20048;-56
2022/11/21 00:56:56;;;;;;;28.27;16.70;;;-0.40;99.90;;;;;;5068870;28;20123;-56
2022/11/21 00:59:22;;;;;;;31.77;17.55;;;-0.40;99.90;;;;;;5069112;28;20119;-56
2022/11/21 01:01:48;;;;;;;29.48;17.30;;;-0.40;99.90;;;;;;5084040;28;20313;-55
2022/11/21 01:04:13;;;;;;;29.92;18.50;;;-0.40;99.90;;;;;;5068891;28;20533;-55
2022/11/21 01:06:39;;;;;;;32.75;18.55;;;-0.40;99.90;;;;;;5068923;28;20838;-56
2022/11/21 01:09:05;;;;;;;34.03;19.23;;;-0.40;99.90;;;;;;5067917;28;20598;-56
2022/11/21 01:11:31;;;;;;;31.15;19.20;;;-0.40;99.90;;;;;;5068515;28;20084;-56
2022/11/21 01:13:57;;;;;;;35.88;18.80;;;-0.40;99.90;;;;;;5068355;28;20044;-56
2022/11/21 01:16:25;;;;;;;30.85;17.42;;;-0.40;99.90;;;;;;5068660;28;20068;-56
2022/11/21 01:18:51;;;;;;;30.27;18.55;;;-0.30;99.90;;;;;;5068526;28;20040;-56
2022/11/21 01:21:21;;;;;;;33.58;18.48;;;-0.50;99.90;;;;;;5068689;28;20576;-56
2022/11/21 01:23:48;;;;;;;35.65;19.27;;;-0.50;99.90;;;;;;5083958;28;20048;-56
2022/11/21 01:26:16;;;;;;;31.27;18.58;;;-0.60;99.90;;;;;;5084053;28;20145;-56
2022/11/21 01:28:42;;;;;;;37.45;20.60;;;-0.70;99.90;;;;;;5068524;28;20052;-56
2022/11/21 01:31:14;;;;;;;37.45;20.85;;;-0.70;99.90;;;;;;5068386;28;20048;-56
2022/11/21 01:33:40;;;;;;;38.80;19.90;;;-0.90;99.90;;;;;;5068242;28;20545;-56
2022/11/21 01:36:16;;;;;;;34.78;21.90;;;-0.90;99.90;;;;;;5067882;28;20049;-56
2022/11/21 01:38:44;;;;;;;39.05;20.65;;;-1.00;99.90;;;;;;5068156;28;20032;-56
2022/11/21 01:41:11;;;;;;;34.67;19.25;;;-1.10;99.90;;;;;;5067832;28;20047;-56
2022/11/21 01:43:37;;;;;;;35.95;19.55;;;-1.30;99.90;;;;;;5068096;28;20131;-56
2022/11/21 01:46:06;;;;;;;37.80;19.85;;;-1.30;99.90;;;;;;5067782;28;20047;-56
2022/11/21 01:48:41;;;;;;;40.67;19.77;;;-1.40;99.90;;;;;;5068056;28;20048;-56
2022/11/21 01:51:10;;;;;;;37.80;19.38;;;-1.50;99.90;;;;;;5067250;28;20470;-56
2022/11/21 01:53:39;;;;;;;37.35;19.58;;;-1.50;99.90;;;;;;5067563;28;20040;-56
2022/11/21 01:56:05;;;;;;;38.08;21.08;;;-1.60;99.90;;;;;;5066922;28;20697;-56
2022/11/21 01:58:33;;;;;;;38.45;20.15;;;-1.60;99.90;;;;;;5067718;28;20101;-56
2022/11/21 02:01:00;;;;;;;38.55;19.98;;;-1.70;99.90;;;;;;5067110;28;20055;-56
2022/11/21 02:03:30;;;;;;;36.08;19.13;;;-1.50;99.90;;;;;;5066480;28;20681;-55
2022/11/21 02:05:56;;;;;;;37.85;19.35;;;-1.20;99.90;;;;;;5067399;28;20177;-56
2022/11/21 02:08:24;;;;;;;39.63;20.02;;;-1.10;99.90;;;;;;5067550;28;20554;-56
2022/11/21 02:11:16;;;;;;;41.33;21.10;;;-1.20;99.90;;;;;;5067569;28;20059;-56
2022/11/21 02:13:42;;;;;;;31.45;18.50;;;-1.30;99.90;;;;;;5066988;28;20099;-56
2022/11/21 02:16:08;;;;;;;40.55;21.38;;;-1.30;99.90;;;;;;5067295;28;20068;-56
2022/11/21 02:18:33;;;;;;;38.80;19.80;;;-1.40;99.90;;;;;;5067800;28;20037;-56
2022/11/21 02:21:26;;;;;;;49.58;22.58;;;-1.40;99.90;;;;;;5067560;28;20485;-56
2022/11/21 02:24:21;;;;;;;51.65;23.42;;;-1.40;99.90;;;;;;5078984;28;20113;-56
2022/11/21 02:26:47;;;;;;;44.45;25.40;;;-1.50;99.90;;;;;;5066280;28;20064;-55
2022/11/21 02:29:14;;;;;;;47.10;24.17;;;-1.50;99.90;;;;;;5067286;28;20068;-55
2022/11/21 02:31:39;;;;;;;42.72;23.30;;;-1.60;99.90;;;;;;5067291;28;20049;-56
2022/11/21 02:34:05;;;;;;;47.42;22.77;;;-1.60;99.90;;;;;;5067088;28;20728;-56
2022/11/21 02:36:42;;;;;;;40.58;21.73;;;-1.70;99.90;;;;;;5066647;28;20475;-56
2022/11/21 02:39:16;;;;;;;43.13;20.45;;;-1.70;99.90;;;;;;5082904;28;20106;-56
2022/11/21 02:42:03;;;;;;;45.47;20.85;;;-1.70;99.90;;;;;;5066947;28;20032;-56
2022/11/21 02:44:45;;;;;;;43.58;22.02;;;-1.80;99.90;;;;;;5066946;28;20123;-56
2022/11/21 02:47:11;;;;;;;47.67;22.70;;;-1.80;99.90;;;;;;5066740;28;20522;-56
2022/11/21 02:49:56;;;;;;;40.65;21.30;;;-1.90;99.90;;;;;;5066488;28;20131;-56
2022/11/21 02:52:22;;;;;;;46.42;21.20;;;-2.00;99.90;;;;;;5066341;28;20121;-56
2022/11/21 02:54:48;;;;;;;38.22;19.23;;;-2.00;99.90;;;;;;5065242;28;20044;-56
2022/11/21 02:57:13;;;;;;;36.97;20.05;;;-2.00;99.90;;;;;;5066704;28;20097;-56
2022/11/21 02:59:39;;;;;;;35.65;19.38;;;-2.10;99.90;;;;;;5067034;28;20123;-56
2022/11/21 03:02:05;;;;;;;36.25;19.33;;;-2.10;99.90;;;;;;5066517;28;20083;-56
2022/11/21 03:04:30;;;;;;;39.05;19.80;;;-2.10;99.90;;;;;;5066887;28;20080;-56
2022/11/21 03:06:56;;;;;;;42.92;20.63;;;-1.50;99.90;;;;;;5082042;28;20060;-56
2022/11/21 03:09:22;;;;;;;42.42;21.40;;;-2.10;99.90;;;;;;5066579;28;20052;-56
2022/11/21 03:11:47;;;;;;;47.78;23.70;;;-2.10;99.90;;;;;;5066807;28;20390;-57
2022/11/21 03:14:13;;;;;;;46.65;22.35;;;-2.10;99.90;;;;;;5066267;28;20070;-57
2022/11/21 03:16:39;;;;;;;47.17;23.25;;;-2.00;99.90;;;;;;5066841;28;20123;-57
2022/11/21 03:19:04;;;;;;;48.47;24.13;;;-2.00;99.90;;;;;;5066955;28;20119;-57
2022/11/21 03:21:30;;;;;;;44.67;22.10;;;-2.00;99.90;;;;;;5066776;28;20040;-56
2022/11/21 03:23:56;;;;;;;42.17;21.00;;;-2.00;99.90;;;;;;5066780;28;20043;-57
2022/11/21 03:26:21;;;;;;;43.58;21.83;;;-2.10;99.90;;;;;;5064551;28;20082;-56
2022/11/21 03:28:47;;;;;;;43.70;22.67;;;-2.10;99.90;;;;;;5066340;28;20082;-56
2022/11/21 03:31:12;;;;;;;48.10;23.00;;;-2.10;99.90;;;;;;5066403;28;20044;-56
2022/11/21 03:33:38;;;;;;;45.60;23.90;;;-2.10;99.90;;;;;;5066622;28;20694;-57
2022/11/21 03:36:04;;;;;;;48.28;22.63;;;-2.20;99.90;;;;;;5066038;28;20056;-57
2022/11/21 03:38:29;;;;;;;47.05;22.08;;;-1.70;99.90;;;;;;5066047;28;20767;-56
2022/11/21 03:40:55;;;;;;;42.08;21.15;;;-2.30;99.90;;;;;;5066226;28;20044;-56
2022/11/21 03:43:21;;;;;;;37.38;20.38;;;-2.30;99.90;;;;;;5065850;28;20106;-56
2022/11/21 03:45:46;;;;;;;41.50;21.65;;;-2.30;99.90;;;;;;5066154;28;20041;-56
2022/11/21 03:48:13;;;;;;;43.47;22.08;;;-2.30;99.90;;;;;;5065815;28;20046;-56
2022/11/21 03:50:42;;;;;;;43.50;22.05;;;-2.40;99.90;;;;;;5066409;28;20052;-56
2022/11/21 03:53:08;;;;;;;39.13;21.73;;;-2.40;99.90;;;;;;5065973;28;20090;-57
2022/11/21 03:55:33;;;;;;;43.35;20.70;;;-2.40;99.90;;;;;;5066386;28;20044;-56
2022/11/21 03:57:59;;;;;;;40.72;21.60;;;-2.40;99.90;;;;;;5066288;28;20086;-56
2022/11/21 04:00:25;;;;;;;39.53;20.55;;;-2.40;99.90;;;;;;5066046;28;20157;-56
2022/11/21 04:02:51;;;;;;;38.42;20.48;;;-2.40;99.90;;;;;;5065816;28;20430;-56
2022/11/21 04:05:16;;;;;;;36.60;19.70;;;-2.50;99.90;;;;;;5081021;28;20040;-56
2022/11/21 04:07:42;;;;;;;40.63;20.15;;;-2.50;99.90;;;;;;5081279;28;20049;-57
2022/11/21 04:10:08;;;;;;;34.35;19.05;;;-2.50;99.90;;;;;;5066202;28;20114;-56
2022/11/21 04:12:34;;;;;;;39.90;20.30;;;-2.50;99.90;;;;;;5066125;28;20044;-56
2022/11/21 04:14:59;;;;;;;42.17;20.13;;;-2.50;99.90;;;;;;5066125;28;20639;-56
2022/11/21 04:17:25;;;;;;;33.53;18.65;;;-2.60;99.90;;;;;;5065258;28;20528;-56
2022/11/21 04:19:50;;;;;;;35.58;19.50;;;-2.60;99.90;;;;;;5065763;28;20094;-56
2022/11/21 04:22:16;;;;;;;35.38;19.23;;;-2.60;99.90;;;;;;5065257;28;20040;-56
2022/11/21 04:24:42;;;;;;;41.15;21.05;;;-2.60;99.90;;;;;;5065190;28;20127;-57
2022/11/21 04:27:07;;;;;;;35.00;18.80;;;-2.70;99.90;;;;;;5066605;28;20382;-56
2022/11/21 04:29:33;;;;;;;37.83;19.70;;;-2.70;99.90;;;;;;5068791;28;20819;-56
2022/11/21 04:31:58;;;;;;;40.00;20.77;;;-2.80;99.90;;;;;;5068853;28;20052;-56
2022/11/21 04:34:24;;;;;;;39.95;19.58;;;-2.80;99.90;;;;;;5069414;28;20055;-57
2022/11/21 04:36:50;;;;;;;34.95;20.23;;;-2.80;99.90;;;;;;5085069;28;20051;-56
2022/11/21 04:39:15;;;;;;;39.28;21.77;;;-2.80;99.90;;;;;;5068694;28;20481;-56
2022/11/21 04:41:41;;;;;;;42.03;21.88;;;-2.80;99.90;;;;;;5068835;28;20048;-57
2022/11/21 04:44:06;;;;;;;38.40;20.77;;;-2.90;99.90;;;;;;5069061;28;20048;-56
2022/11/21 04:46:32;;;;;;;40.05;21.60;;;-2.90;99.90;;;;;;5068936;28;20036;-57
2022/11/21 04:48:58;;;;;;;39.67;21.08;;;-2.90;99.90;;;;;;5068831;28;20059;-57
2022/11/21 04:51:23;;;;;;;36.88;20.27;;;-2.90;99.90;;;;;;5067125;28;20047;-56
2022/11/21 04:53:49;;;;;;;42.60;20.20;;;-2.90;99.90;;;;;;5068720;28;20040;-56
2022/11/21 04:56:15;;;;;;;42.83;21.60;;;-2.90;99.90;;;;;;5068461;28;20181;-57
2022/11/21 04:58:43;;;;;;;40.10;19.83;;;-2.90;99.90;;;;;;5068835;28;20131;-57
2022/11/21 05:01:09;;;;;;;46.53;22.52;;;-2.90;99.90;;;;;;5068968;28;20393;-57
2022/11/21 05:03:35;;;;;;;45.03;22.83;;;-2.80;99.90;;;;;;5068834;28;20122;-56
2022/11/21 05:06:02;;;;;;;52.83;25.08;;;-2.80;99.90;;;;;;5069422;28;20051;-57
2022/11/21 05:08:27;;;;;;;46.13;23.50;;;-2.80;99.90;;;;;;5068735;28;20064;-57
2022/11/21 05:13:37;;;;;;;45.33;24.38;;;-2.80;99.90;;;;;;5068750;28;20055;-57
2022/11/21 05:16:03;;;;;;;59.35;27.98;;;-2.80;99.90;;;;;;5068477;28;20058;-57
2022/11/21 05:18:30;;;;;;;53.30;26.58;;;-2.80;99.90;;;;;;5083721;28;20131;-57
2022/11/21 05:20:55;;;;;;;46.78;22.50;;;-2.80;99.90;;;;;;5068838;28;20168;-57
2022/11/21 05:23:21;;;;;;;50.00;25.10;;;-2.80;99.90;;;;;;5068609;28;20085;-57
2022/11/21 05:25:47;;;;;;;48.20;24.00;;;-2.80;99.90;;;;;;5068788;28;20424;-57
2022/11/21 05:28:12;;;;;;;52.50;24.42;;;-2.90;99.90;;;;;;5068537;28;20542;-56
2022/11/21 05:30:38;;;;;;;46.50;23.25;;;-2.90;99.90;;;;;;5068301;28;20076;-57
2022/11/21 05:33:04;;;;;;;51.22;23.73;;;-2.90;99.90;;;;;;5068143;28;20091;-57
2022/11/21 05:35:30;;;;;;;50.22;23.42;;;-2.90;99.90;;;;;;5083326;28;20743;-56
2022/11/21 05:37:56;;;;;;;54.75;25.00;;;-2.90;99.90;;;;;;5067601;28;20119;-56
2022/11/21 05:40:23;;;;;;;45.17;25.50;;;-2.90;99.90;;;;;;5082929;28;20080;-57
2022/11/21 05:45:32;;;;;;;49.67;24.52;;;-2.90;99.90;;;;;;5067134;28;20049;-57
2022/11/21 05:47:58;;;;;;;52.97;26.88;;;-2.80;99.90;;;;;;5066987;28;20040;-57
2022/11/21 05:50:24;;;;;;;47.08;24.48;;;-2.80;99.90;;;;;;5067519;28;20493;-57
2022/11/21 05:52:49;;;;;;;51.95;26.08;;;-2.70;99.90;;;;;;5082831;28;20044;-57
2022/11/21 05:55:15;;;;;;;54.05;25.65;;;-2.70;99.90;;;;;;5067577;28;20505;-57
2022/11/21 05:57:40;;;;;;;54.55;25.35;;;-2.70;99.90;;;;;;5067224;28;20044;-56
2022/11/21 06:00:07;;;;;;;55.05;28.05;;;-2.60;99.90;;;;;;5067900;28;20801;-56
2022/11/21 06:05:17;;;;;;;49.15;25.52;;;-2.50;99.90;;;;;;5066168;28;20521;-56
2022/11/21 06:07:42;;;;;;;56.63;26.60;;;-2.50;99.90;;;;;;5067874;28;20064;-57
2022/11/21 06:10:08;;;;;;;50.08;25.30;;;-2.50;99.90;;;;;;5067980;28;20280;-56
2022/11/21 06:12:34;;;;;;;53.63;26.48;;;-2.50;99.90;;;;;;5067803;28;20048;-57
2022/11/21 06:15:00;;;;;;;57.13;29.10;;;-2.50;99.90;;;;;;5067951;28;20040;-56
2022/11/21 06:17:25;;;;;;;54.10;25.30;;;-2.60;99.90;;;;;;5067362;28;20047;-56
2022/11/21 06:19:51;;;;;;;52.45;26.38;;;-2.60;99.90;;;;;;5067856;28;20712;-56
2022/11/21 06:22:17;;;;;;;55.72;27.60;;;-2.70;99.90;;;;;;5067816;28;20822;-56
2022/11/21 06:24:43;;;;;;;56.38;26.85;;;-2.80;99.90;;;;;;5067644;28;20102;-56
2022/11/21 06:27:08;;;;;;;58.10;25.75;;;-2.70;99.90;;;;;;5083060;28;20562;-56
2022/11/21 06:29:34;;;;;;;51.80;25.10;;;-2.80;99.90;;;;;;5067118;28;20067;-56
2022/11/21 06:31:59;;;;;;;58.47;26.60;;;-2.90;99.90;;;;;;5065762;28;20044;-55
2022/11/21 06:34:25;;;;;;;53.95;26.40;;;-2.90;99.90;;;;;;5067197;28;20051;-56
2022/11/21 06:36:51;;;;;;;57.28;26.83;;;-2.80;99.90;;;;;;5066674;28;20039;-56
2022/11/21 06:39:17;;;;;;;50.17;25.05;;;-2.80;99.90;;;;;;5066883;28;20738;-56
2022/11/21 06:41:49;;;;;;;62.28;26.92;;;-2.80;99.90;;;;;;5066887;28;20044;-56
2022/11/21 06:44:16;;;;;;;52.40;25.88;;;-2.90;99.90;;;;;;5067423;28;20536;-56
2022/11/21 06:46:42;;;;;;;52.78;25.30;;;-2.90;99.90;;;;;;5067179;28;20322;-56
2022/11/21 06:49:07;;;;;;;56.55;26.15;;;-2.90;99.90;;;;;;5067127;28;20033;-56
2022/11/21 06:51:33;;;;;;;58.30;26.23;;;-2.90;99.90;;;;;;5067065;28;20040;-56
2022/11/21 06:54:00;;;;;;;55.78;26.27;;;-3.00;99.90;;;;;;5066807;28;20490;-56
2022/11/21 06:56:28;;;;;;;49.78;24.90;;;-2.90;99.90;;;;;;5067123;28;20056;-56
2022/11/21 06:58:54;;;;;;;53.80;25.58;;;-3.00;99.90;;;;;;5066547;28;20502;-56
2022/11/21 07:01:21;;;;;;;49.58;25.58;;;-2.90;99.90;;;;;;5067109;28;20044;-55
2022/11/21 07:03:46;;;;;;;49.38;25.15;;;-3.10;99.90;;;;;;5067186;28;20445;-55
2022/11/21 07:06:12;;;;;;;50.80;25.00;;;-3.10;99.90;;;;;;5067645;28;20040;-55
2022/11/21 07:08:41;;;;;;;55.33;26.13;;;-3.10;99.90;;;;;;5066710;28;20099;-55
2022/11/21 07:11:09;;;;;;;53.03;26.58;;;-3.20;99.90;;;;;;5067247;28;20052;-55
2022/11/21 07:13:34;;;;;;;50.88;26.77;;;-3.20;99.90;;;;;;5067044;28;20040;-55
2022/11/21 07:16:06;;;;;;;50.47;26.23;;;-3.20;99.90;;;;;;5066800;28;20040;-56
2022/11/21 07:18:32;;;;;;;54.10;27.42;;;-3.20;99.90;;;;;;5066656;28;20135;-56
2022/11/21 07:20:59;;;;;;;56.03;27.30;;;-2.60;99.90;;;;;;5066790;28;20032;-55
2022/11/21 07:23:25;;;;;;;57.63;27.80;;;-3.10;99.90;;;;;;5066478;28;20040;-56
2022/11/21 07:25:50;;;;;;;57.65;28.23;;;-3.00;99.90;;;;;;5065959;28;20371;-55
2022/11/21 07:28:16;;;;;;;57.22;28.42;;;-3.00;99.90;;;;;;5066143;28;20533;-55
2022/11/21 07:30:42;;;;;;;55.50;28.00;;;-2.90;99.90;;;;;;5065986;28;20032;-55
2022/11/21 07:33:08;;;;;;;60.80;28.13;;;-2.80;99.90;;;;;;5065933;28;20093;-56
2022/11/21 07:35:34;;;;;;;60.33;27.98;;;-2.80;99.90;;;;;;5066033;28;20079;-56
2022/11/21 07:38:00;;;;;;;58.13;28.80;;;-2.80;99.90;;;;;;5066001;28;20045;-55
2022/11/21 07:40:26;;;;;;;57.63;28.92;;;-2.80;99.90;;;;;;5066292;28;20476;-56
2022/11/21 07:42:52;;;;;;;63.38;29.25;;;-2.80;99.90;;;;;;5065912;28;20040;-56
2022/11/21 07:45:18;;;;;;;58.90;28.02;;;-2.80;99.90;;;;;;5066145;28;20044;-56
2022/11/21 07:47:44;;;;;;;62.47;28.33;;;-2.80;99.90;;;;;;5066121;28;20050;-56
2022/11/21 07:50:10;;;;;;;57.40;29.23;;;-2.80;99.90;;;;;;5066480;28;20448;-55
2022/11/21 07:52:36;;;;;;;57.90;28.35;;;-2.70;99.90;;;;;;5064673;28;20045;-56
2022/11/21 07:55:04;;;;;;;61.75;30.17;;;-2.70;99.90;;;;;;5065936;28;20044;-55
2022/11/21 07:57:31;;;;;;;54.47;26.88;;;-2.70;99.90;;;;;;5065915;28;20462;-56
2022/11/21 07:59:57;;;;;;;70.15;30.48;;;-2.60;99.90;;;;;;5065679;28;20037;-55
2022/11/21 08:02:27;;;;;;;64.85;28.55;;;-2.60;99.90;;;;;;5067901;28;20086;-55
2022/11/21 08:04:53;;;;;;;63.55;29.80;;;-2.50;99.90;;;;;;5069826;28;20084;-55
2022/11/21 08:07:21;;;;;;;59.55;28.60;;;-2.40;99.90;;;;;;5068940;28;20636;-56
2022/11/21 08:09:47;;;;;;;66.68;29.77;;;-2.40;99.90;;;;;;5069856;28;20044;-55
2022/11/21 08:12:13;;;;;;;57.75;29.52;;;-2.40;99.90;;;;;;5085788;28;20044;-55
2022/11/21 08:14:40;;;;;;;60.53;29.17;;;-2.40;99.90;;;;;;5085057;28;20115;-56
2022/11/21 08:17:06;;;;;;;60.55;29.23;;;-2.40;99.90;;;;;;5085476;28;20049;-56
2022/11/21 08:19:31;;;;;;;63.53;31.55;;;-2.30;99.90;;;;;;5070273;28;20119;-56
2022/11/21 08:21:57;;;;;;;61.92;29.52;;;-2.30;99.90;;;;;;5069579;28;20569;-55
2022/11/21 08:24:23;;;;;;;60.20;29.23;;;-2.30;99.90;;;;;;5069599;28;20043;-56
2022/11/21 08:26:49;;;;;;;70.15;31.83;;;-2.30;99.90;;;;;;5069712;28;20045;-55
2022/11/21 08:29:14;;;;;;;65.95;31.50;;;-2.20;99.90;;;;;;5069482;28;20033;-55
2022/11/21 08:31:41;;;;;;;60.28;30.42;;;-2.10;99.90;;;;;;5069545;28;20499;-56
2022/11/21 08:34:07;;;;;;;69.65;31.75;;;-2.10;99.90;;;;;;5069525;28;20044;-56
2022/11/21 08:36:33;;;;;;;70.32;33.33;;;-2.10;99.90;;;;;;5084866;28;20048;-55
2022/11/21 08:38:59;;;;;;;63.80;29.33;;;-2.00;99.90;;;;;;5069347;28;20481;-55
2022/11/21 08:44:22;;;;;;;64.57;30.77;;;-1.90;99.90;;;;;;5045424;28;20143;-56
2022/11/21 08:46:48;;;;;;;59.63;31.10;;;-1.90;99.90;;;;;;5068739;28;20123;-56
2022/11/21 08:49:14;;;;;;;69.15;31.98;;;-1.80;99.90;;;;;;5084407;28;20048;-56
2022/11/21 08:51:40;;;;;;;73.80;34.08;;;-1.70;99.90;;;;;;5067644;28;20451;-56
2022/11/21 08:54:05;;;;;;;61.33;31.67;;;-1.70;99.90;;;;;;5068926;28;20044;-56
2022/11/21 08:56:31;;;;;;;61.55;31.58;;;-1.60;99.90;;;;;;5069242;28;20044;-56
2022/11/21 08:58:57;;;;;;;75.07;34.13;;;-1.50;99.90;;;;;;5068691;28;20080;-56
2022/11/21 09:01:22;;;;;;;70.28;35.00;;;-1.40;99.90;;;;;;5068917;28;20394;-56
2022/11/21 09:03:48;;;;;;;79.35;35.97;;;-1.20;99.90;;;;;;5068908;28;20315;-56
2022/11/21 09:06:14;;;;;;;68.20;35.10;;;-0.70;99.90;;;;;;5084454;28;20148;-56
2022/11/21 09:08:40;;;;;;;82.47;37.22;;;-0.70;99.90;;;;;;5068842;28;20078;-57
2022/11/21 09:11:07;;;;;;;75.13;35.45;;;-0.40;99.90;;;;;;5069087;28;20450;-56
2022/11/21 09:13:34;;;;;;;85.18;38.38;;;-0.30;99.90;;;;;;5084466;28;20055;-56
2022/11/21 09:18:45;;;;;;;76.47;36.25;;;-0.10;99.90;;;;;;5068534;28;20482;-57
2022/11/21 09:21:15;;;;;;;72.85;35.13;;;-0.20;99.90;;;;;;5084151;28;20049;-56
2022/11/21 09:23:41;;;;;;;78.78;36.63;;;0.00;99.90;;;;;;5068895;28;20090;-57
2022/11/21 09:26:09;;;;;;;75.53;37.35;;;0.10;99.90;;;;;;5068101;28;20040;-53
2022/11/21 09:28:34;;;;;;;65.18;34.33;;;0.10;99.90;;;;;;5078224;28;20134;-56
2022/11/21 09:31:04;;;;;;;65.68;35.28;;;0.10;99.90;;;;;;5064599;28;20119;-50
2022/11/21 09:33:30;;;;;;;68.15;35.03;;;0.10;99.90;;;;;;5066948;28;20124;-46
2022/11/21 09:35:59;;;;;;;62.10;34.00;;;0.10;99.90;;;;;;5033415;28;20539;-48
2022/11/21 09:38:26;;;;;;;67.40;34.58;;;0.20;99.90;;;;;;5043237;28;20098;-48
2022/11/21 09:40:59;;;;;;;70.47;34.10;;;0.20;99.90;;;;;;5043650;28;20048;-52
2022/11/21 09:43:50;;;;;;;66.25;33.30;;;0.20;99.90;;;;;;5043140;28;20060;-49
2022/11/21 09:46:20;;;;;;;70.07;34.17;;;0.20;99.90;;;;;;5043483;28;20041;-45
2022/11/21 09:49:03;;;;;;;72.20;35.33;;;0.30;99.90;;;;;;5058909;28;20048;-46
2022/11/21 09:51:30;;;;;;;72.38;34.05;;;0.20;99.90;;;;;;5044071;28;20052;-49
2022/11/21 09:54:01;;;;;;;61.75;31.95;;;0.30;99.90;;;;;;5043601;28;20838;-47
2022/11/21 09:56:30;;;;;;;66.65;34.88;;;0.30;99.90;;;;;;5043570;28;20045;-48
2022/11/21 09:59:20;;;;;;;64.47;33.85;;;1.20;99.90;;;;;;5043471;28;20120;-45
2022/11/21 10:01:46;;;;;;;68.57;34.88;;;0.30;99.90;;;;;;5043721;28;20041;-44
2022/11/21 10:04:12;;;;;;;70.20;34.92;;;0.30;99.90;;;;;;5043610;28;20140;-47
2022/11/21 10:06:58;;;;;;;63.67;33.28;;;0.40;99.90;;;;;;5043528;28;20136;-44
2022/11/21 10:09:58;;;;;;;63.45;30.90;;;0.40;99.90;;;;;;5043967;28;20060;-45
2022/11/21 10:12:46;;;;;;;60.55;33.35;;;0.40;99.90;;;;;;5043282;28;20489;-48
2022/11/21 10:15:49;;;;;;;61.35;31.35;;;0.40;99.90;;;;;;5043832;28;20121;-44
2022/11/21 10:18:42;;;;;;;58.03;31.15;;;0.40;99.90;;;;;;5041919;28;20391;-45
2022/11/21 10:21:22;;;;;;;63.03;33.50;;;0.50;99.90;;;;;;5043324;28;20043;-45
2022/11/21 10:24:07;;;;;;;60.83;30.75;;;0.50;99.90;;;;;;5042846;28;20824;-46
2022/11/21 10:26:33;;;;;;;60.30;31.75;;;0.50;99.90;;;;;;5042451;28;20049;-46
2022/11/21 10:29:07;;;;;;;58.28;30.73;;;0.60;99.90;;;;;;5042952;28;20055;-48
2022/11/21 10:31:37;;;;;;;60.47;31.65;;;0.60;99.90;;;;;;5043131;28;20059;-45
2022/11/21 10:34:11;;;;;;;53.00;29.90;;;0.60;99.90;;;;;;5042705;28;20839;-44
2022/11/21 10:36:39;;;;;;;64.50;33.63;;;0.70;99.90;;;;;;5034365;28;20061;-45
2022/11/21 10:39:16;;;;;;;57.20;30.52;;;0.70;99.90;;;;;;5042646;28;20056;-44
2022/11/21 10:42:10;;;;;;;56.25;29.80;;;0.80;99.90;;;;;;5043254;28;20072;-45
2022/11/21 10:47:31;;;;;;;56.22;30.77;;;0.80;99.90;;;;;;5043203;28;20044;-44
2022/11/21 10:50:13;;;;;;;54.33;29.92;;;0.80;99.90;;;;;;5043049;28;20183;-45
2022/11/21 10:52:48;;;;;;;59.10;31.20;;;0.80;99.90;;;;;;5043102;28;20076;-45
2022/11/21 10:55:15;;;;;;;59.22;31.15;;;0.80;99.90;;;;;;5042500;28;20040;-45
2022/11/21 10:57:48;;;;;;;57.15;31.45;;;0.80;99.90;;;;;;5042150;28;20072;-46
2022/11/21 11:00:16;;;;;;;55.45;30.05;;;1.40;99.90;;;;;;5041727;28;20076;-46
2022/11/21 11:02:59;;;;;;;58.55;31.95;;;0.80;99.90;;;;;;5057334;28;20044;-44
2022/11/21 11:05:29;;;;;;;58.42;31.00;;;0.90;99.90;;;;;;5042417;28;20044;-46
2022/11/21 11:08:11;;;;;;;57.90;29.50;;;0.90;99.90;;;;;;5057256;28;20073;-46
2022/11/21 11:10:45;;;;;;;55.75;31.13;;;1.00;99.90;;;;;;5042246;28;20495;-46
2022/11/21 11:13:34;;;;;;;56.83;29.40;;;0.90;99.90;;;;;;5041379;28;20130;-46
2022/11/21 11:16:09;;;;;;;54.00;29.77;;;1.00;99.90;;;;;;5042019;28;20052;-44
2022/11/21 11:18:40;;;;;;;49.05;27.45;;;1.00;99.90;;;;;;5041871;28;20491;-44
2022/11/21 11:21:16;;;;;;;47.47;28.27;;;1.10;99.90;;;;;;5042823;28;20063;-45
2022/11/21 11:23:42;;;;;;;50.05;28.75;;;1.00;99.90;;;;;;5042771;28;20049;-44
2022/11/21 11:26:55;;;;;;;53.28;29.05;;;1.10;99.90;;;;;;5042075;28;20114;-46
2022/11/21 11:29:20;;;;;;;54.33;28.42;;;1.10;99.90;;;;;;5040126;28;20049;-48
2022/11/21 11:31:56;;;;;;;48.05;26.48;;;1.10;99.90;;;;;;5041981;28;20106;-42
2022/11/21 11:34:27;;;;;;;44.75;26.58;;;1.10;99.90;;;;;;5041703;28;20064;-55
2022/11/21 11:37:18;;;;;;;46.95;26.77;;;1.10;99.90;;;;;;5048289;28;20602;-56
2022/11/21 11:39:58;;;;;;;47.70;25.63;;;1.10;99.90;;;;;;5042128;28;20109;-56
2022/11/21 11:48:44;;;;;;;46.92;27.10;;;1.20;99.90;;;;;;5032848;28;20502;-56
2022/11/21 11:51:28;;;;;;;43.53;25.98;;;1.40;99.90;;;;;;5042867;28;20044;-56
2022/11/21 11:54:02;;;;;;;49.47;25.05;;;1.10;99.90;;;;;;5061811;28;20041;-47
2022/11/21 11:56:32;;;;;;;42.63;26.55;;;1.10;99.90;;;;;;5045740;28;20521;-50
2022/11/21 11:59:06;;;;;;;42.22;23.75;;;1.00;99.90;;;;;;5046225;28;20040;-51
2022/11/21 12:01:59;;;;;;;40.10;23.60;;;1.00;99.90;;;;;;5045562;28;20123;-51
2022/11/21 12:04:28;;;;;;;40.67;21.55;;;1.10;99.90;;;;;;5045670;28;20460;-52
2022/11/21 12:06:56;;;;;;;42.33;23.92;;;1.10;99.90;;;;;;5046527;28;20049;-50
2022/11/21 12:09:26;;;;;;;35.58;22.27;;;1.20;99.90;;;;;;5045532;28;20086;-47
2022/11/21 12:12:07;;;;;;;34.30;21.17;;;1.20;99.90;;;;;;5046216;28;20037;-50
2022/11/21 12:17:31;;;;;;;34.80;20.35;;;1.40;99.90;;;;;;5045664;28;20055;-50
2022/11/21 12:19:58;;;;;;;31.00;19.42;;;1.50;99.90;;;;;;5045882;28;20051;-49
2022/11/21 12:22:24;;;;;;;33.40;18.35;;;1.60;99.90;;;;;;5045554;28;20045;-50
2022/11/21 12:24:49;;;;;;;29.65;17.63;;;1.70;99.90;;;;;;5045785;28;20102;-51
2022/11/21 12:27:30;;;;;;;27.98;18.13;;;1.70;99.90;;;;;;5045616;28;20045;-51
2022/11/21 12:30:37;;;;;;;29.52;17.45;;;1.80;99.90;;;;;;5045893;28;20383;-49
2022/11/21 12:33:21;;;;;;;26.92;17.27;;;1.90;99.90;;;;;;5045561;28;20075;-50
2022/11/21 12:36:12;;;;;;;26.58;16.05;;;2.00;99.90;;;;;;5046133;28;20051;-49
2022/11/21 12:38:49;;;;;;;24.77;16.70;;;2.00;99.90;;;;;;5046279;28;20087;-50
2022/11/21 12:44:53;;;;;;;22.70;14.27;;;2.00;99.90;;;;;;5045954;28;20562;-51
2022/11/21 12:54:28;;;;;;;24.17;15.30;;;2.10;99.90;;;;;;5023116;28;20111;-50
2022/11/21 12:56:33;;;;;;;22.25;13.50;;;2.10;99.90;;;;;;5049458;28;20056;-48
2022/11/21 12:59:00;;;;;;;24.75;14.27;;;2.10;99.90;;;;;;5049675;28;20091;-51
2022/11/21 13:01:43;;;;;;;24.63;14.82;;;2.10;99.90;;;;;;5049342;28;20073;-51
2022/11/21 13:04:15;;;;;;;20.83;13.70;;;2.10;99.90;;;;;;5048879;28;20060;-48
2022/11/21 13:06:44;;;;;;;22.95;14.20;;;2.20;99.90;;;;;;5048829;28;20135;-48
2022/11/21 13:09:17;;;;;;;21.50;14.48;;;2.20;99.90;;;;;;5048723;28;20096;-52
2022/11/21 13:11:58;;;;;;;20.15;13.40;;;2.20;99.90;;;;;;5049135;28;20041;-51
2022/11/21 13:14:50;;;;;;;24.33;14.27;;;2.20;99.90;;;;;;5048861;28;20045;-51
2022/11/21 13:17:25;;;;;;;22.42;14.43;;;2.30;99.90;;;;;;5047683;28;20514;-49